createdAt,value
2019-03-22T00:01:24.522Z,12.00
2019-03-22T00:04:12.662Z,11.80
2019-03-22T00:06:41.231Z,11.70
2019-03-22T00:09:43.403Z,11.70
2019-03-22T00:18:11.882Z,11.50
2019-03-22T00:26:27.403Z,11.70
2019-03-22T00:29:07.862Z,11.80
2019-03-22T00:32:11.535Z,11.70
2019-03-22T00:34:52.857Z,11.70
2019-03-22T00:37:33.475Z,11.80
2019-03-22T00:40:16.730Z,11.80
2019-03-22T00:42:57.201Z,11.70
2019-03-22T00:45:37.695Z,11.70
2019-03-22T00:48:18.734Z,11.70
2019-03-22T00:51:01.220Z,11.70
2019-03-22T00:53:41.906Z,11.70
2019-03-22T00:56:22.430Z,11.60
2019-03-22T00:59:06.552Z,11.60
2019-03-22T01:01:49.698Z,11.60
2019-03-22T01:04:31.291Z,11.70
2019-03-22T01:07:13.802Z,11.70
2019-03-22T01:09:54.535Z,11.70
2019-03-22T01:12:35.159Z,11.60
2019-03-22T01:15:23.472Z,11.50
2019-03-22T01:17:52.078Z,11.50
2019-03-22T01:23:54.797Z,11.60
2019-03-22T01:26:23.500Z,11.70
2019-03-22T01:29:45.759Z,11.70
2019-03-22T01:32:16.688Z,11.70
2019-03-22T01:34:32.977Z,11.60
2019-03-22T01:37:20.958Z,11.50
2019-03-22T01:40:10.059Z,11.60
2019-03-22T01:42:57.993Z,11.60
2019-03-22T01:45:45.872Z,11.60
2019-03-22T01:48:14.509Z,11.60
2019-03-22T01:51:02.413Z,11.50
2019-03-22T01:53:50.419Z,11.70
2019-03-22T01:56:40.033Z,11.70
2019-03-22T01:59:08.515Z,11.70
2019-03-22T02:01:56.463Z,11.60
2019-03-22T02:05:04.086Z,11.50
2019-03-22T02:07:32.917Z,11.40
2019-03-22T02:10:20.709Z,11.40
2019-03-22T02:13:02.054Z,11.40
2019-03-22T02:15:42.767Z,11.30
2019-03-22T02:18:23.166Z,11.20
2019-03-22T02:21:04.037Z,11.40
2019-03-22T02:23:32.506Z,11.50
2019-03-22T02:26:20.282Z,11.50
2019-03-22T02:29:08.072Z,11.50
2019-03-22T02:31:55.844Z,11.50
2019-03-22T02:34:43.652Z,11.60
2019-03-22T02:37:31.509Z,11.60
2019-03-22T02:40:21.458Z,11.60
2019-03-22T02:43:09.233Z,11.60
2019-03-22T02:45:37.681Z,11.60
2019-03-22T02:48:25.491Z,11.60
2019-03-22T02:51:06.334Z,11.70
2019-03-22T02:53:47.091Z,11.70
2019-03-22T02:56:27.751Z,11.70
2019-03-22T02:59:08.776Z,11.60
2019-03-22T03:01:49.686Z,11.60
2019-03-22T03:04:30.601Z,11.70
2019-03-22T03:07:12.283Z,11.70
2019-03-22T03:09:53.155Z,11.70
2019-03-22T03:12:34.101Z,11.70
2019-03-22T03:15:02.854Z,11.60
2019-03-22T03:17:50.747Z,11.60
2019-03-22T03:20:38.569Z,11.60
2019-03-22T03:23:19.253Z,11.60
2019-03-22T03:25:59.878Z,11.70
2019-03-22T03:28:40.550Z,11.70
2019-03-22T03:31:21.318Z,11.70
2019-03-22T03:34:02.020Z,11.70
2019-03-22T03:36:43.086Z,11.80
2019-03-22T03:39:23.450Z,11.80
2019-03-22T03:42:04.475Z,11.70
2019-03-22T03:44:32.911Z,11.80
2019-03-22T03:47:20.702Z,11.80
2019-03-22T03:50:09.140Z,11.80
2019-03-22T03:52:56.961Z,11.80
2019-03-22T03:55:44.965Z,11.80
2019-03-22T03:58:32.776Z,11.70
2019-03-22T04:01:01.206Z,11.70
2019-03-22T04:03:49.014Z,11.60
2019-03-22T04:06:36.815Z,11.60
2019-03-22T04:09:24.615Z,11.50
2019-03-22T04:12:12.463Z,11.50
2019-03-22T04:15:00.463Z,11.60
2019-03-22T04:17:50.100Z,11.70
2019-03-22T04:20:38.161Z,11.60
2019-03-22T04:23:18.403Z,11.50
2019-03-22T04:25:59.330Z,11.60
2019-03-22T04:28:40.154Z,11.60
2019-03-22T04:31:20.801Z,11.60
2019-03-22T04:34:01.657Z,11.60
2019-03-22T04:36:42.551Z,11.70
2019-03-22T04:39:23.199Z,11.70
2019-03-22T04:42:03.757Z,11.60
2019-03-22T04:44:32.205Z,11.40
2019-03-22T04:47:20.850Z,11.50
2019-03-22T04:50:08.648Z,11.60
2019-03-22T04:52:57.107Z,11.60
2019-03-22T04:56:05.618Z,11.60
2019-03-22T04:58:54.940Z,11.60
2019-03-22T05:02:03.453Z,11.60
2019-03-22T05:04:51.422Z,11.50
2019-03-22T05:07:39.214Z,11.50
2019-03-22T05:10:27.414Z,11.50
2019-03-22T05:13:36.081Z,11.50
2019-03-22T05:16:17.226Z,11.50
2019-03-22T05:18:58.226Z,11.50
2019-03-22T05:21:39.704Z,11.60
2019-03-22T05:24:20.809Z,11.50
2019-03-22T05:27:01.718Z,11.40
2019-03-22T05:29:42.418Z,11.50
2019-03-22T05:32:23.786Z,11.50
2019-03-22T05:35:07.234Z,11.60
2019-03-22T05:37:46.870Z,11.60
2019-03-22T05:40:27.562Z,11.60
2019-03-22T05:43:08.263Z,11.70
2019-03-22T05:45:49.418Z,11.60
2019-03-22T05:48:17.870Z,11.60
2019-03-22T05:51:05.790Z,11.70
2019-03-22T05:53:53.931Z,11.70
2019-03-22T05:56:41.985Z,11.80
2019-03-22T05:59:29.778Z,11.90
2019-03-22T06:02:17.596Z,11.90
2019-03-22T06:05:26.370Z,11.90
2019-03-22T06:08:14.163Z,12.00
2019-03-22T06:11:01.929Z,11.90
2019-03-22T06:13:49.741Z,12.00
2019-03-22T06:16:37.506Z,11.80
2019-03-22T06:19:25.303Z,11.80
2019-03-22T06:22:13.093Z,11.80
2019-03-22T06:27:48.357Z,12.00
2019-03-22T06:30:29.443Z,11.90
2019-03-22T06:33:10.331Z,12.00
2019-03-22T06:35:51.407Z,12.00
2019-03-22T06:38:32.253Z,12.00
2019-03-22T06:41:13.072Z,12.10
2019-03-22T06:43:41.500Z,12.10
2019-03-22T06:49:16.769Z,12.00
2019-03-22T06:52:04.622Z,12.10
2019-03-22T06:54:33.099Z,12.00
2019-03-22T06:57:20.971Z,11.90
2019-03-22T07:00:29.466Z,12.00
2019-03-22T07:03:37.994Z,12.10
2019-03-22T07:06:25.750Z,12.30
2019-03-22T07:09:13.545Z,12.70
2019-03-22T07:12:01.333Z,12.60
2019-03-22T07:14:49.121Z,12.40
2019-03-22T07:17:17.578Z,12.20
2019-03-22T07:20:06.409Z,13.00
2019-03-22T07:22:54.214Z,13.00
2019-03-22T07:25:42.287Z,13.30
2019-03-22T07:28:30.081Z,12.90
2019-03-22T07:31:17.873Z,12.80
2019-03-22T07:34:06.019Z,12.70
2019-03-22T07:36:53.810Z,12.30
2019-03-22T07:39:41.598Z,12.20
2019-03-22T07:42:29.715Z,12.30
2019-03-22T07:45:17.496Z,12.30
2019-03-22T07:48:05.343Z,12.30
2019-03-22T07:50:53.519Z,12.30
2019-03-22T07:53:41.309Z,12.10
2019-03-22T07:56:29.109Z,12.00
2019-03-22T07:58:57.564Z,12.00
2019-03-22T08:01:45.342Z,12.20
2019-03-22T08:04:33.145Z,12.10
2019-03-22T08:07:21.190Z,11.90
2019-03-22T08:10:09.082Z,11.80
2019-03-22T08:12:57.186Z,11.90
2019-03-22T08:15:37.896Z,11.90
2019-03-22T08:18:18.679Z,11.90
2019-03-22T08:20:59.721Z,11.90
2019-03-22T08:23:40.752Z,11.90
2019-03-22T08:26:21.255Z,11.90
2019-03-22T08:29:02.062Z,11.80
2019-03-22T08:31:42.938Z,11.80
2019-03-22T08:34:23.602Z,11.90
2019-03-22T08:37:04.075Z,11.90
2019-03-22T08:39:32.649Z,11.90
2019-03-22T08:42:20.587Z,11.80
2019-03-22T08:44:49.339Z,11.80
2019-03-22T08:47:37.303Z,11.80
2019-03-22T08:50:25.485Z,11.80
2019-03-22T08:53:13.302Z,11.80
2019-03-22T08:56:01.329Z,11.90
2019-03-22T08:58:49.751Z,12.00
2019-03-22T09:01:18.332Z,12.00
2019-03-22T09:04:06.410Z,12.00
2019-03-22T09:06:54.597Z,11.90
2019-03-22T09:09:23.653Z,11.70
2019-03-22T09:12:11.851Z,11.90
2019-03-22T09:14:52.238Z,11.80
2019-03-22T09:17:20.852Z,11.90
2019-03-22T09:20:09.653Z,12.10
2019-03-22T09:22:57.548Z,12.20
2019-03-22T09:25:46.487Z,12.10
2019-03-22T09:28:34.573Z,11.90
2019-03-22T09:31:22.639Z,12.00
2019-03-22T09:34:10.584Z,11.90
2019-03-22T09:36:58.790Z,12.00
2019-03-22T09:39:47.612Z,12.20
2019-03-22T09:42:35.859Z,12.30
2019-03-22T09:45:23.940Z,12.30
2019-03-22T09:48:12.147Z,12.20
2019-03-22T09:51:00.059Z,12.20
2019-03-22T09:53:48.049Z,12.30
2019-03-22T09:56:46.421Z,12.20
2019-03-22T09:59:26.812Z,12.30
2019-03-22T10:02:14.872Z,12.30
2019-03-22T10:08:01.736Z,12.40
2019-03-22T10:10:49.763Z,12.40
2019-03-22T10:13:18.432Z,12.50
2019-03-22T10:15:59.538Z,12.40
2019-03-22T10:18:40.734Z,12.40
2019-03-22T10:21:22.711Z,12.40
2019-03-22T10:24:04.299Z,12.30
2019-03-22T10:26:32.846Z,12.30
2019-03-22T10:29:20.758Z,12.40
2019-03-22T10:32:23.609Z,12.40
2019-03-22T10:34:59.127Z,12.40
2019-03-22T10:37:47.266Z,12.40
2019-03-22T10:40:35.542Z,12.40
2019-03-22T10:43:23.713Z,12.40
2019-03-22T10:46:11.804Z,12.50
2019-03-22T10:49:00.132Z,12.40
2019-03-22T10:51:57.052Z,12.50
2019-03-22T10:54:38.482Z,12.50
2019-03-22T10:57:26.731Z,12.60
2019-03-22T10:59:55.595Z,12.60
2019-03-22T11:02:43.497Z,12.70
2019-03-22T11:05:31.329Z,12.70
2019-03-22T11:08:19.304Z,12.60
2019-03-22T11:11:07.668Z,12.60
2019-03-22T11:13:55.929Z,12.50
2019-03-22T11:16:36.486Z,12.60
2019-03-22T11:22:31.030Z,12.80
2019-03-22T11:24:59.758Z,12.90
2019-03-22T11:27:47.898Z,12.80
2019-03-22T11:30:36.492Z,12.80
2019-03-22T11:33:24.493Z,12.80
2019-03-22T11:36:12.817Z,13.00
2019-03-22T11:38:41.461Z,13.10
2019-03-22T11:41:29.947Z,13.10
2019-03-22T11:44:18.195Z,13.00
2019-03-22T11:47:06.338Z,13.10
2019-03-22T11:49:34.865Z,13.10
2019-03-22T11:52:22.673Z,13.20
2019-03-22T11:55:31.378Z,13.40
2019-03-22T12:01:19.682Z,13.40
2019-03-22T12:04:04.189Z,13.60
2019-03-22T12:06:32.678Z,13.70
2019-03-22T12:09:22.889Z,14.10
2019-03-22T12:12:05.970Z,14.40
2019-03-22T12:14:47.665Z,14.60
2019-03-22T12:17:28.580Z,14.70
2019-03-22T12:20:10.575Z,14.90
2019-03-22T12:22:51.314Z,14.80
2019-03-22T12:25:32.889Z,14.90
2019-03-22T12:28:14.289Z,15.00
2019-03-22T12:30:55.285Z,14.80
2019-03-22T12:33:36.518Z,15.30
2019-03-22T12:36:17.534Z,15.00
2019-03-22T12:38:58.635Z,15.10
2019-03-22T12:41:39.392Z,15.40
2019-03-22T12:44:20.074Z,15.50
2019-03-22T12:47:01.145Z,15.80
2019-03-22T12:49:41.713Z,15.90
2019-03-22T12:52:22.978Z,15.80
2019-03-22T12:55:03.646Z,15.70
2019-03-22T12:57:32.775Z,16.30
2019-03-22T13:00:42.356Z,16.50
2019-03-22T13:03:11.053Z,16.80
2019-03-22T13:05:40.635Z,16.50
2019-03-22T13:08:09.710Z,17.00
2019-03-22T13:10:57.878Z,16.50
2019-03-22T13:13:46.510Z,16.00
2019-03-22T13:16:27.449Z,16.20
2019-03-22T13:19:08.552Z,16.40
2019-03-22T13:21:49.899Z,16.50
2019-03-22T13:24:30.504Z,16.30
2019-03-22T13:26:59.231Z,16.10
2019-03-22T13:29:48.145Z,16.00
2019-03-22T13:32:36.703Z,16.90
2019-03-22T13:35:44.063Z,17.30
2019-03-22T13:38:31.920Z,16.40
2019-03-22T13:41:19.878Z,16.50
2019-03-22T13:44:08.574Z,16.70
2019-03-22T13:46:56.707Z,16.40
2019-03-22T13:49:44.809Z,16.30
2019-03-22T13:52:33.311Z,16.70
2019-03-22T13:55:22.197Z,16.70
2019-03-22T13:58:10.490Z,16.70
2019-03-22T14:00:58.715Z,16.80
2019-03-22T14:03:46.641Z,16.70
2019-03-22T14:06:34.576Z,17.20
2019-03-22T14:09:22.750Z,18.30
2019-03-22T14:12:11.236Z,18.50
2019-03-22T14:14:59.307Z,18.30
2019-03-22T14:17:47.493Z,18.60
2019-03-22T14:20:35.889Z,18.10
2019-03-22T14:23:24.006Z,17.90
2019-03-22T14:26:04.513Z,18.30
2019-03-22T14:28:33.932Z,18.70
2019-03-22T14:31:16.858Z,18.50
2019-03-22T14:33:52.914Z,18.30
2019-03-22T14:36:40.938Z,18.60
2019-03-22T14:39:43.154Z,18.60
2019-03-22T14:42:00.010Z,18.60
2019-03-22T14:45:02.766Z,18.80
2019-03-22T14:47:39.302Z,18.30
2019-03-22T14:50:28.027Z,18.40
2019-03-22T14:52:56.868Z,18.00
2019-03-22T14:55:45.484Z,17.20
2019-03-22T14:58:36.633Z,17.00
2019-03-22T15:01:24.855Z,16.90
2019-03-22T15:07:02.138Z,16.80
2019-03-22T15:09:50.654Z,16.80
2019-03-22T15:12:39.152Z,17.30
2019-03-22T15:21:38.039Z,17.10
2019-03-22T15:24:45.643Z,16.90
2019-03-22T15:27:28.141Z,17.00
2019-03-22T15:30:28.403Z,17.00
2019-03-22T15:33:34.338Z,17.50
2019-03-22T15:36:30.370Z,17.50
2019-03-22T15:39:30.625Z,17.20
2019-03-22T15:42:12.168Z,17.10
2019-03-22T15:44:53.720Z,17.10
2019-03-22T15:47:34.834Z,17.20
2019-03-22T15:50:15.989Z,17.10
2019-03-22T15:52:57.058Z,16.90
2019-03-22T15:55:38.829Z,16.80
2019-03-22T15:58:20.002Z,16.80
2019-03-22T16:00:48.683Z,16.80
2019-03-22T16:09:15.364Z,16.90
2019-03-22T16:12:03.524Z,16.70
2019-03-22T16:14:51.503Z,16.50
2019-03-22T16:17:39.461Z,16.70
2019-03-22T16:23:15.602Z,16.60
2019-03-22T16:26:04.108Z,16.70
2019-03-22T16:28:33.239Z,16.80
2019-03-22T16:31:14.227Z,16.70
2019-03-22T16:33:55.119Z,16.70
2019-03-22T16:36:36.338Z,16.60
2019-03-22T16:39:17.313Z,16.60
2019-03-22T16:41:58.301Z,16.70
2019-03-22T16:44:39.089Z,16.60
2019-03-22T16:47:19.862Z,16.60
2019-03-22T16:50:00.508Z,16.50
2019-03-22T16:52:41.303Z,16.50
2019-03-22T16:55:23.970Z,16.50
2019-03-22T16:58:05.330Z,16.40
2019-03-22T17:00:46.421Z,16.50
2019-03-22T17:03:28.606Z,16.40
2019-03-22T17:06:10.205Z,16.40
2019-03-22T17:08:50.718Z,16.40
2019-03-22T17:11:31.544Z,16.40
2019-03-22T17:14:12.530Z,16.40
2019-03-22T17:16:53.417Z,16.20
2019-03-22T17:19:34.052Z,16.30
2019-03-22T17:22:02.669Z,16.30
2019-03-22T17:24:50.901Z,16.20
2019-03-22T17:27:38.820Z,16.30
2019-03-22T17:30:26.763Z,16.20
2019-03-22T17:33:14.705Z,16.20
2019-03-22T17:36:02.566Z,16.20
2019-03-22T17:38:50.629Z,16.20
2019-03-22T17:41:38.422Z,16.10
2019-03-22T17:44:26.557Z,16.10
2019-03-22T17:47:14.412Z,16.10
2019-03-22T17:50:02.378Z,16.10
2019-03-22T17:52:50.233Z,16.00
2019-03-22T17:55:38.207Z,16.00
2019-03-22T17:58:26.033Z,15.90
2019-03-22T18:01:14.798Z,15.90
2019-03-22T18:04:02.723Z,15.90
2019-03-22T18:06:50.959Z,15.90
2019-03-22T18:09:39.055Z,15.90
2019-03-22T18:12:27.513Z,15.80
2019-03-22T18:15:17.022Z,15.80
2019-03-22T18:18:04.826Z,15.80
2019-03-22T18:20:53.103Z,15.70
2019-03-22T18:23:35.914Z,15.80
2019-03-22T18:26:18.511Z,15.70
2019-03-22T18:29:06.566Z,15.70
2019-03-22T18:31:54.389Z,15.70
2019-03-22T18:34:23.253Z,15.60
2019-03-22T18:37:11.721Z,15.60
2019-03-22T18:39:59.648Z,15.60
2019-03-22T18:42:47.442Z,15.60
2019-03-22T18:45:35.306Z,15.60
2019-03-22T18:48:23.366Z,15.50
2019-03-22T18:51:11.190Z,15.50
2019-03-22T18:53:39.663Z,15.50
2019-03-22T18:56:08.121Z,15.50
2019-03-22T18:58:56.241Z,15.50
2019-03-22T19:01:44.381Z,15.50
2019-03-22T19:04:32.173Z,15.50
2019-03-22T19:07:20.204Z,15.50
2019-03-22T19:10:01.385Z,15.40
2019-03-22T19:12:41.965Z,15.40
2019-03-22T19:15:22.809Z,15.30
2019-03-22T19:18:04.890Z,15.40
2019-03-22T19:20:45.855Z,15.30
2019-03-22T19:23:26.527Z,15.30
2019-03-22T19:26:07.542Z,15.30
2019-03-22T19:28:36.001Z,15.30
2019-03-22T19:31:16.360Z,15.20
2019-03-22T19:33:57.860Z,15.10
2019-03-22T19:36:38.534Z,15.10
2019-03-22T19:39:19.251Z,15.10
2019-03-22T19:42:00.081Z,15.00
2019-03-22T19:44:41.428Z,15.10
2019-03-22T19:47:21.832Z,15.00
2019-03-22T19:50:02.771Z,14.90
2019-03-22T19:52:43.748Z,14.90
2019-03-22T19:55:24.255Z,14.90
2019-03-22T19:58:05.230Z,14.90
2019-03-22T20:00:45.995Z,14.80
2019-03-22T20:03:27.241Z,14.80
2019-03-22T20:06:08.809Z,14.70
2019-03-22T20:08:37.374Z,14.80
2019-03-22T20:11:25.214Z,14.70
2019-03-22T20:14:13.025Z,14.70
2019-03-22T20:17:00.801Z,14.60
2019-03-22T20:19:48.893Z,14.60
2019-03-22T20:22:36.948Z,14.60
2019-03-22T20:25:25.047Z,14.60
2019-03-22T20:28:12.848Z,14.50
2019-03-22T20:30:53.341Z,14.50
2019-03-22T20:33:21.810Z,14.50
2019-03-22T20:36:09.901Z,14.50
2019-03-22T20:38:57.850Z,14.50
2019-03-22T20:41:45.637Z,14.40
2019-03-22T20:44:34.045Z,14.50
2019-03-22T20:47:22.942Z,14.50
2019-03-22T20:50:10.930Z,14.50
2019-03-22T20:52:58.703Z,14.40
2019-03-22T20:55:46.501Z,14.40
2019-03-22T20:58:34.635Z,14.40
2019-03-22T21:01:22.691Z,14.30
2019-03-22T21:03:51.194Z,14.30
2019-03-22T21:06:38.966Z,14.30
2019-03-22T21:09:26.779Z,14.30
2019-03-22T21:12:14.609Z,14.30
2019-03-22T21:15:02.471Z,14.20
2019-03-22T21:17:50.269Z,14.20
2019-03-22T21:20:38.284Z,14.20
2019-03-22T21:23:35.943Z,14.10
2019-03-22T21:26:15.892Z,14.10
2019-03-22T21:29:03.674Z,14.10
2019-03-22T21:31:32.183Z,14.10
2019-03-22T21:34:19.961Z,14.10
2019-03-22T21:37:07.773Z,14.10
2019-03-22T21:39:55.584Z,14.10
2019-03-22T21:42:43.737Z,14.00
2019-03-22T21:45:31.510Z,14.00
2019-03-22T21:48:19.310Z,14.00
2019-03-22T21:51:07.082Z,13.90
2019-03-22T21:53:54.896Z,13.90
2019-03-22T21:56:42.720Z,13.90
2019-03-22T21:59:30.505Z,13.90
2019-03-22T22:02:18.374Z,13.80
2019-03-22T22:05:06.483Z,13.70
2019-03-22T22:07:54.343Z,13.80
2019-03-22T22:10:42.128Z,13.80
2019-03-22T22:13:29.978Z,13.70
2019-03-22T22:16:17.767Z,13.70
2019-03-22T22:19:05.616Z,13.60
2019-03-22T22:21:46.441Z,13.70
2019-03-22T22:24:14.897Z,13.60
2019-03-22T22:27:13.250Z,13.50
2019-03-22T22:29:33.224Z,13.60
2019-03-22T22:32:01.644Z,13.50
2019-03-22T22:34:30.340Z,13.50
2019-03-22T22:37:18.118Z,13.50
2019-03-22T22:40:26.693Z,13.40
2019-03-22T22:43:14.493Z,13.50
2019-03-22T22:46:02.261Z,13.40
2019-03-22T22:48:50.361Z,13.40
2019-03-22T22:51:31.768Z,13.40
2019-03-22T22:54:12.645Z,13.30
2019-03-22T22:56:53.176Z,13.30
2019-03-22T22:59:34.091Z,13.40
2019-03-22T23:02:02.647Z,13.40
2019-03-22T23:04:50.480Z,13.30
2019-03-22T23:07:38.361Z,13.30
2019-03-22T23:10:26.169Z,13.20
2019-03-22T23:13:13.965Z,13.30
2019-03-22T23:16:02.110Z,13.30
2019-03-22T23:18:49.946Z,13.20
2019-03-22T23:21:37.755Z,13.20
2019-03-22T23:24:25.541Z,13.20
2019-03-22T23:26:54.331Z,13.20
2019-03-22T23:29:42.443Z,13.20
2019-03-22T23:32:30.289Z,13.10
2019-03-22T23:35:18.094Z,13.10
2019-03-22T23:38:05.881Z,13.10
2019-03-22T23:40:53.743Z,13.10
2019-03-22T23:43:33.935Z,13.00
2019-03-22T23:46:02.449Z,13.10
2019-03-22T23:48:50.224Z,13.10
2019-03-22T23:51:38.029Z,13.00
2019-03-22T23:54:25.798Z,13.00
2019-03-22T23:57:13.862Z,13.00
